Time;durP1;ratioP1;P1;durP2;ratioP2;P2;SDS_P1;SDS_P2;PMS_P1;PMS_P2;Temp;Humidity;BMP_temperature;BMP_pressure;BME280_temperature;BME280_humidity;BME280_pressure;Samples;Min_cycle;Max_cycle;Signal;HPM_P1;HPM_P2
2021/10/19 00:00:45;;;;;;;13.55;10.35;;;14.30;81.10;;;;;;5075722;28;20367;-80
2021/10/19 00:03:11;;;;;;;13.60;10.45;;;14.40;81.20;;;;;;5067294;28;20032;-81
2021/10/19 00:05:37;;;;;;;13.02;10.57;;;14.40;81.20;;;;;;5053051;28;20032;-81
2021/10/19 00:08:02;;;;;;;13.93;10.77;;;14.40;81.30;;;;;;5058206;28;20054;-81
2021/10/19 00:10:28;;;;;;;12.73;11.18;;;14.30;81.20;;;;;;5087596;28;20071;-80
2021/10/19 00:12:54;;;;;;;13.95;11.10;;;14.30;81.20;;;;;;5071939;28;20647;-80
2021/10/19 00:15:20;;;;;;;13.52;11.15;;;14.30;81.30;;;;;;5071928;28;20447;-80
2021/10/19 00:17:46;;;;;;;13.27;11.23;;;14.30;81.40;;;;;;5088523;28;20490;-81
2021/10/19 00:20:14;;;;;;;15.10;11.40;;;14.20;81.40;;;;;;5068353;28;20024;-81
2021/10/19 00:22:40;;;;;;;15.05;11.48;;;14.20;81.50;;;;;;5059547;28;20479;-80
2021/10/19 00:25:06;;;;;;;12.77;10.80;;;14.20;81.60;;;;;;5099051;28;20042;-81
2021/10/19 00:27:35;;;;;;;12.98;11.30;;;14.20;81.70;;;;;;5060598;28;20039;-80
2021/10/19 00:30:05;;;;;;;15.13;10.27;;;14.20;81.80;;;;;;5074627;28;20024;-80
2021/10/19 00:32:31;;;;;;;14.32;11.48;;;14.20;81.90;;;;;;5085494;28;20024;-81
2021/10/19 00:34:57;;;;;;;12.55;11.23;;;14.10;81.90;;;;;;5079608;28;20036;-81
2021/10/19 00:37:23;;;;;;;13.00;11.23;;;14.10;82.00;;;;;;5084182;28;20039;-80
2021/10/19 00:39:49;;;;;;;13.57;11.70;;;14.10;82.00;;;;;;5094990;28;20020;-80
2021/10/19 00:42:15;;;;;;;14.85;11.15;;;14.10;82.10;;;;;;5060176;28;20022;-80
2021/10/19 00:44:42;;;;;;;14.32;11.82;;;14.10;82.20;;;;;;5079966;28;20080;-81
2021/10/19 00:47:09;;;;;;;16.27;12.90;;;14.10;82.30;;;;;;5059734;28;20130;-81
2021/10/19 00:49:34;;;;;;;17.23;12.88;;;14.10;82.50;;;;;;5107839;28;20022;-81
2021/10/19 00:52:01;;;;;;;17.63;12.15;;;14.10;82.60;;;;;;5099733;28;20478;-80
2021/10/19 00:54:27;;;;;;;15.02;12.00;;;14.00;82.60;;;;;;5072206;28;20025;-81
2021/10/19 00:56:54;;;;;;;15.30;12.27;;;14.00;82.70;;;;;;5082123;28;20051;-81
2021/10/19 00:59:20;;;;;;;16.67;12.40;;;14.00;82.90;;;;;;5073010;28;20151;-81
2021/10/19 01:01:47;;;;;;;16.10;12.52;;;14.00;83.00;;;;;;5044011;28;20020;-80
2021/10/19 01:04:13;;;;;;;16.25;12.13;;;14.00;83.20;;;;;;5057613;28;20020;-80
2021/10/19 01:06:39;;;;;;;14.63;12.55;;;14.00;83.20;;;;;;5058510;28;20034;-80
2021/10/19 01:09:06;;;;;;;14.90;12.82;;;14.00;83.30;;;;;;5093893;28;20024;-80
2021/10/19 01:11:32;;;;;;;16.15;12.35;;;14.00;83.40;;;;;;5091977;28;20038;-81
2021/10/19 01:13:58;;;;;;;14.55;12.38;;;14.00;83.50;;;;;;5074762;28;20111;-80
2021/10/19 01:16:24;;;;;;;15.63;12.90;;;14.00;83.60;;;;;;5098450;28;20130;-81
2021/10/19 01:18:50;;;;;;;13.30;10.98;;;14.00;83.60;;;;;;5092817;28;20067;-82
2021/10/19 01:21:16;;;;;;;18.55;12.45;;;14.00;83.70;;;;;;5096516;28;20031;-80
2021/10/19 01:23:41;;;;;;;14.43;11.63;;;14.00;83.80;;;;;;5079217;28;20020;-80
2021/10/19 01:26:09;;;;;;;17.25;12.07;;;14.00;83.70;;;;;;5080548;28;20024;-80
2021/10/19 01:28:40;;;;;;;16.13;13.25;;;14.00;83.80;;;;;;5076291;28;20051;-80
2021/10/19 01:31:06;;;;;;;13.80;11.33;;;14.00;83.80;;;;;;5088356;28;20047;-80
2021/10/19 01:33:32;;;;;;;13.48;11.60;;;14.00;83.70;;;;;;5065900;28;20030;-80
2021/10/19 01:35:58;;;;;;;13.13;11.60;;;14.00;83.80;;;;;;5097695;28;20035;-80
2021/10/19 01:38:27;;;;;;;14.38;11.65;;;14.00;83.80;;;;;;5064158;28;20132;-80
2021/10/19 01:40:54;;;;;;;15.13;11.77;;;14.00;83.80;;;;;;5105099;28;20035;-80
2021/10/19 01:43:23;;;;;;;13.10;11.77;;;14.00;83.80;;;;;;5094039;28;20048;-80
2021/10/19 01:45:54;;;;;;;14.10;11.88;;;14.00;83.80;;;;;;5091468;28;20027;-80
2021/10/19 01:48:20;;;;;;;13.13;10.57;;;14.00;83.80;;;;;;5097679;28;20032;-80
2021/10/19 01:50:46;;;;;;;12.40;11.02;;;14.00;83.80;;;;;;5063449;28;20387;-81
2021/10/19 01:53:12;;;;;;;12.75;11.40;;;14.00;83.90;;;;;;5086764;28;20020;-80
2021/10/19 01:55:39;;;;;;;11.93;10.68;;;14.00;83.90;;;;;;5060808;28;20028;-80
2021/10/19 01:58:06;;;;;;;13.13;10.65;;;14.00;83.90;;;;;;5064198;28;20486;-81
2021/10/19 02:00:32;;;;;;;12.38;11.07;;;14.10;84.00;;;;;;5061975;28;20024;-80
2021/10/19 02:02:58;;;;;;;13.85;11.82;;;14.10;84.10;;;;;;5075025;28;20052;-80
2021/10/19 02:05:23;;;;;;;12.70;11.38;;;14.10;84.20;;;;;;5081893;28;20044;-80
2021/10/19 02:07:49;;;;;;;13.88;11.55;;;14.10;84.20;;;;;;5058828;28;20526;-80
2021/10/19 02:10:15;;;;;;;13.23;11.88;;;14.10;84.20;;;;;;5064145;28;20027;-80
2021/10/19 02:12:41;;;;;;;12.65;11.35;;;14.00;84.20;;;;;;5059680;28;20384;-80
2021/10/19 02:15:08;;;;;;;12.82;10.75;;;14.10;84.30;;;;;;5075193;28;20036;-79
2021/10/19 02:17:35;;;;;;;14.20;11.43;;;14.10;84.30;;;;;;5075606;28;20127;-80
2021/10/19 02:20:01;;;;;;;13.27;11.13;;;14.10;84.40;;;;;;5074417;28;20028;-80
2021/10/19 02:22:28;;;;;;;14.05;11.07;;;14.10;84.40;;;;;;5041040;28;20118;-80
2021/10/19 02:24:54;;;;;;;17.25;12.57;;;14.10;84.40;;;;;;5074251;28;20043;-80
2021/10/19 02:27:20;;;;;;;13.15;11.65;;;14.10;84.50;;;;;;5086892;28;20382;-80
2021/10/19 02:29:46;;;;;;;14.23;11.25;;;14.10;84.50;;;;;;5057102;28;20059;-80
2021/10/19 02:32:12;;;;;;;16.02;11.90;;;14.10;84.60;;;;;;5085881;28;20582;-80
2021/10/19 02:34:37;;;;;;;12.50;11.02;;;14.10;84.60;;;;;;5103170;28;20023;-80
2021/10/19 02:37:04;;;;;;;13.05;11.18;;;14.10;84.50;;;;;;5099414;28;20497;-80
2021/10/19 02:39:29;;;;;;;13.65;12.25;;;14.20;84.60;;;;;;5081317;28;20039;-80
2021/10/19 02:41:55;;;;;;;15.27;11.82;;;14.20;84.60;;;;;;5076676;28;20036;-80
2021/10/19 02:44:21;;;;;;;12.80;11.43;;;14.20;84.60;;;;;;5074886;28;20422;-80
2021/10/19 02:46:46;;;;;;;17.70;11.95;;;14.20;84.60;;;;;;5074276;28;20473;-80
2021/10/19 02:49:12;;;;;;;14.70;11.73;;;14.20;84.70;;;;;;5094747;28;20105;-80
2021/10/19 02:51:38;;;;;;;13.82;11.55;;;14.20;84.70;;;;;;5082198;28;20441;-80
2021/10/19 02:54:04;;;;;;;12.73;11.23;;;14.20;84.70;;;;;;5072820;28;20036;-80
2021/10/19 02:56:30;;;;;;;14.40;12.35;;;14.20;84.80;;;;;;5072189;28;20085;-79
2021/10/19 02:58:55;;;;;;;13.07;11.15;;;14.20;84.80;;;;;;5075398;28;20441;-80
2021/10/19 03:01:21;;;;;;;12.77;11.27;;;14.20;84.90;;;;;;5056485;28;20062;-80
2021/10/19 03:03:47;;;;;;;14.45;12.90;;;14.20;85.10;;;;;;5075157;28;20034;-81
2021/10/19 03:06:12;;;;;;;15.88;11.98;;;14.20;85.40;;;;;;5074250;28;20404;-80
2021/10/19 03:08:38;;;;;;;12.98;11.65;;;14.20;85.60;;;;;;5073161;28;20035;-80
2021/10/19 03:11:04;;;;;;;15.10;11.98;;;14.20;85.70;;;;;;5074715;28;20036;-80
2021/10/19 03:13:29;;;;;;;15.07;11.98;;;14.20;85.70;;;;;;5053586;28;20036;-80
2021/10/19 03:15:56;;;;;;;14.07;12.35;;;14.20;85.70;;;;;;5076710;28;20031;-80
2021/10/19 03:18:22;;;;;;;13.30;11.82;;;14.20;85.80;;;;;;5091225;28;20056;-80
2021/10/19 03:20:48;;;;;;;14.30;11.68;;;14.20;85.90;;;;;;5075622;28;20012;-80
2021/10/19 03:23:14;;;;;;;12.57;11.27;;;14.20;85.90;;;;;;5094470;28;20456;-80
2021/10/19 03:25:39;;;;;;;13.27;11.80;;;14.20;86.00;;;;;;5075188;28;20015;-80
2021/10/19 03:28:05;;;;;;;14.07;11.38;;;14.20;86.10;;;;;;5096123;28;20382;-80
2021/10/19 03:30:31;;;;;;;15.82;12.27;;;14.30;86.20;;;;;;5074729;28;20407;-79
2021/10/19 03:32:57;;;;;;;14.07;12.10;;;14.30;86.40;;;;;;5080731;28;20035;-80
2021/10/19 03:35:23;;;;;;;13.43;10.77;;;14.30;86.40;;;;;;5072514;28;20491;-79
2021/10/19 03:37:48;;;;;;;12.85;10.65;;;14.30;86.60;;;;;;5083110;28;20307;-80
2021/10/19 03:40:14;;;;;;;11.75;10.43;;;14.30;86.70;;;;;;5075905;28;20080;-80
2021/10/19 03:42:41;;;;;;;14.13;11.63;;;14.30;86.80;;;;;;5069128;28;20025;-79
2021/10/19 03:45:08;;;;;;;12.35;10.98;;;14.40;87.00;;;;;;5068430;28;20525;-79
2021/10/19 03:47:34;;;;;;;13.05;11.65;;;14.40;87.20;;;;;;5086142;28;20024;-79
2021/10/19 03:50:00;;;;;;;14.15;11.35;;;14.30;87.30;;;;;;5092657;28;20055;-79
2021/10/19 03:52:26;;;;;;;12.85;11.55;;;14.30;87.50;;;;;;5064493;28;20036;-79
2021/10/19 03:54:51;;;;;;;13.18;11.40;;;14.40;87.60;;;;;;5073012;28;20178;-79
2021/10/19 03:57:17;;;;;;;12.38;11.07;;;14.40;87.90;;;;;;5071801;28;20102;-79
2021/10/19 03:59:43;;;;;;;14.02;11.57;;;14.40;88.00;;;;;;5091153;28;20410;-79
2021/10/19 04:02:08;;;;;;;14.80;12.27;;;14.40;88.30;;;;;;5053741;28;20120;-79
2021/10/19 04:04:36;;;;;;;14.35;11.90;;;14.30;88.30;;;;;;5073006;28;20032;-79
2021/10/19 04:07:02;;;;;;;13.93;12.00;;;14.40;88.60;;;;;;5085972;28;20082;-79
2021/10/19 04:09:28;;;;;;;18.25;12.55;;;14.40;88.70;;;;;;5089388;28;20024;-79
2021/10/19 04:11:54;;;;;;;14.25;11.82;;;14.40;88.70;;;;;;5081075;28;20056;-79
2021/10/19 04:14:19;;;;;;;16.00;12.32;;;14.40;88.90;;;;;;5087725;28;20048;-79
2021/10/19 04:16:45;;;;;;;19.75;12.75;;;14.40;89.10;;;;;;5071509;28;20044;-79
2021/10/19 04:19:11;;;;;;;14.05;12.55;;;14.40;89.20;;;;;;5099667;28;20047;-79
2021/10/19 04:21:36;;;;;;;13.20;11.80;;;14.40;89.30;;;;;;5074489;28;20073;-79
2021/10/19 04:24:02;;;;;;;14.43;12.23;;;14.40;89.40;;;;;;5098646;28;20031;-79
2021/10/19 04:26:28;;;;;;;13.20;11.70;;;14.40;89.40;;;;;;5093656;28;20032;-79
2021/10/19 04:28:54;;;;;;;13.43;11.73;;;14.40;89.40;;;;;;5088568;28;20416;-80
2021/10/19 04:31:19;;;;;;;12.93;11.38;;;14.40;89.40;;;;;;5051676;28;20102;-79
2021/10/19 04:33:45;;;;;;;13.35;11.50;;;14.50;89.50;;;;;;5059444;28;20024;-79
2021/10/19 04:36:11;;;;;;;14.98;11.75;;;14.50;89.50;;;;;;5089656;28;20115;-79
2021/10/19 04:38:36;;;;;;;12.82;11.52;;;14.50;89.50;;;;;;5090756;28;20031;-79
2021/10/19 04:41:03;;;;;;;14.40;11.80;;;14.50;89.60;;;;;;5070727;28;20479;-79
2021/10/19 04:43:29;;;;;;;13.95;12.55;;;14.50;89.60;;;;;;5070126;28;20032;-80
2021/10/19 04:45:55;;;;;;;13.65;11.43;;;14.50;89.80;;;;;;5046142;28;20040;-79
2021/10/19 04:48:22;;;;;;;13.50;12.00;;;14.50;89.80;;;;;;5083435;28;20553;-79
2021/10/19 04:50:49;;;;;;;15.40;12.52;;;14.60;90.00;;;;;;5057948;28;20060;-79
2021/10/19 04:53:14;;;;;;;17.25;13.00;;;14.60;90.00;;;;;;5071967;28;20024;-79
2021/10/19 04:55:40;;;;;;;13.48;12.07;;;14.60;90.10;;;;;;5071340;28;20105;-80
2021/10/19 04:58:06;;;;;;;12.95;11.55;;;14.60;90.30;;;;;;5071601;28;20036;-79
2021/10/19 05:00:32;;;;;;;13.48;11.73;;;14.60;90.20;;;;;;5071917;28;20581;-79
2021/10/19 05:02:57;;;;;;;10.98;9.85;;;14.60;90.20;;;;;;5090322;28;20036;-79
2021/10/19 05:05:24;;;;;;;14.35;12.80;;;14.60;90.20;;;;;;5070892;28;20383;-79
2021/10/19 05:07:50;;;;;;;16.48;13.02;;;14.60;90.30;;;;;;5071432;28;20130;-79
2021/10/19 05:10:17;;;;;;;13.82;12.40;;;14.60;90.50;;;;;;5089645;28;20529;-79
2021/10/19 05:12:43;;;;;;;18.70;12.90;;;14.60;90.50;;;;;;5054933;28;20028;-79
2021/10/19 05:15:09;;;;;;;12.68;11.35;;;14.60;90.50;;;;;;5089667;28;20040;-79
2021/10/19 05:17:35;;;;;;;17.67;12.73;;;14.60;90.40;;;;;;5071245;28;20040;-79
2021/10/19 05:20:01;;;;;;;14.68;13.07;;;14.60;90.40;;;;;;5054019;28;20035;-79
2021/10/19 05:22:27;;;;;;;14.65;13.05;;;14.60;90.40;;;;;;5089509;28;20032;-79
2021/10/19 05:24:53;;;;;;;15.38;12.75;;;14.70;90.50;;;;;;5089289;28;21575;-80
2021/10/19 05:27:18;;;;;;;13.48;11.65;;;14.70;90.60;;;;;;5088466;28;20036;-79
2021/10/19 05:29:44;;;;;;;13.63;12.10;;;14.70;90.60;;;;;;5054116;28;20383;-79
2021/10/19 05:32:10;;;;;;;13.93;12.43;;;14.60;90.80;;;;;;5071139;28;20039;-80
2021/10/19 05:34:36;;;;;;;16.85;14.43;;;14.70;90.60;;;;;;5053497;28;20024;-79
2021/10/19 05:37:02;;;;;;;16.35;13.65;;;14.60;90.60;;;;;;5071005;28;20099;-80
2021/10/19 05:39:27;;;;;;;17.35;13.95;;;14.60;90.70;;;;;;5071027;28;20502;-79
2021/10/19 05:41:53;;;;;;;15.48;12.90;;;14.60;90.70;;;;;;5090028;28;20024;-80
2021/10/19 05:44:19;;;;;;;15.65;13.70;;;14.60;90.70;;;;;;5093410;28;20042;-79
2021/10/19 05:46:44;;;;;;;15.77;13.55;;;14.60;90.70;;;;;;5075461;28;20432;-80
2021/10/19 05:49:10;;;;;;;16.98;14.45;;;14.60;90.90;;;;;;5075377;28;20039;-80
2021/10/19 05:51:36;;;;;;;16.95;14.25;;;14.60;90.70;;;;;;5075565;28;20093;-81
2021/10/19 05:54:01;;;;;;;16.45;13.60;;;14.70;90.90;;;;;;5075677;28;20063;-80
2021/10/19 05:56:27;;;;;;;17.35;13.60;;;14.60;90.90;;;;;;5058604;28;20032;-81
2021/10/19 05:58:53;;;;;;;15.13;13.63;;;14.70;90.90;;;;;;5058743;28;20028;-81
2021/10/19 06:01:18;;;;;;;16.42;13.68;;;14.60;90.90;;;;;;5075559;28;20090;-81
2021/10/19 06:03:44;;;;;;;15.25;13.65;;;14.60;90.90;;;;;;5075703;28;20025;-82
2021/10/19 06:06:15;;;;;;;13.38;12.07;;;14.70;90.90;;;;;;5058806;28;20435;-81
2021/10/19 06:08:40;;;;;;;17.00;13.40;;;14.70;90.90;;;;;;5074727;28;20031;-80
2021/10/19 06:11:07;;;;;;;15.82;13.77;;;14.70;91.00;;;;;;5107245;28;20483;-80
2021/10/19 06:13:33;;;;;;;14.48;13.02;;;14.70;91.00;;;;;;5074275;28;20020;-81
2021/10/19 06:15:58;;;;;;;15.05;13.20;;;14.70;91.00;;;;;;5058589;28;20382;-81
2021/10/19 06:18:25;;;;;;;13.57;12.18;;;14.70;91.10;;;;;;5057850;28;20036;-81
2021/10/19 06:20:52;;;;;;;16.08;14.38;;;14.70;91.10;;;;;;5075187;28;20012;-80
2021/10/19 06:23:19;;;;;;;15.15;13.65;;;14.70;91.10;;;;;;5073948;28;20085;-79
2021/10/19 06:25:46;;;;;;;14.55;13.00;;;14.70;91.10;;;;;;5059580;28;20107;-80
2021/10/19 06:28:12;;;;;;;15.57;13.98;;;14.70;91.20;;;;;;5091796;28;20042;-79
2021/10/19 06:30:38;;;;;;;14.75;13.27;;;14.70;91.20;;;;;;5107758;28;20028;-81
2021/10/19 06:33:03;;;;;;;14.82;13.32;;;14.80;91.20;;;;;;5074086;28;20111;-81
2021/10/19 06:35:29;;;;;;;13.80;12.38;;;14.70;91.10;;;;;;5073356;28;20040;-79
2021/10/19 06:37:55;;;;;;;15.00;13.50;;;14.80;91.10;;;;;;5075056;28;20019;-81
2021/10/19 06:40:21;;;;;;;13.93;12.40;;;14.80;91.20;;;;;;5093340;28;20024;-81
2021/10/19 06:42:47;;;;;;;18.10;12.90;;;14.80;91.20;;;;;;5057865;28;20469;-79
2021/10/19 06:45:13;;;;;;;13.20;12.00;;;14.80;91.20;;;;;;5091907;28;20031;-82
2021/10/19 06:47:39;;;;;;;12.90;11.65;;;14.80;91.20;;;;;;5074211;28;20034;-83
2021/10/19 06:50:07;;;;;;;13.32;12.05;;;14.80;91.20;;;;;;5091488;28;20031;-83
2021/10/19 06:52:36;;;;;;;14.70;13.25;;;14.80;91.20;;;;;;5093478;28;20444;-84
2021/10/19 06:55:06;;;;;;;13.68;12.18;;;14.80;91.20;;;;;;5079574;28;20035;-80
2021/10/19 06:57:37;;;;;;;14.98;12.75;;;14.80;91.20;;;;;;5055309;28;20043;-79
2021/10/19 07:00:04;;;;;;;15.80;13.15;;;14.80;91.50;;;;;;5071724;28;20058;-81
2021/10/19 07:02:30;;;;;;;13.15;11.52;;;14.80;91.30;;;;;;5059941;28;20434;-81
2021/10/19 07:04:55;;;;;;;13.60;12.30;;;14.90;91.30;;;;;;5063793;28;20070;-81
2021/10/19 07:07:21;;;;;;;13.88;12.02;;;14.90;91.30;;;;;;5084003;28;20389;-81
2021/10/19 07:09:47;;;;;;;12.93;11.52;;;14.90;91.30;;;;;;5078974;28;20553;-80
2021/10/19 07:12:13;;;;;;;12.00;10.70;;;14.90;91.20;;;;;;5094797;28;20024;-79
2021/10/19 07:14:38;;;;;;;13.20;11.82;;;14.90;91.20;;;;;;5076464;28;20043;-82
2021/10/19 07:17:04;;;;;;;12.73;11.57;;;14.90;91.30;;;;;;5058880;28;20062;-83
2021/10/19 07:19:30;;;;;;;12.93;10.60;;;14.90;91.30;;;;;;5066064;28;20047;-79
2021/10/19 07:21:56;;;;;;;13.93;12.52;;;14.90;91.60;;;;;;5053003;28;20093;-82
2021/10/19 07:24:21;;;;;;;14.15;12.82;;;14.90;91.50;;;;;;5071519;28;20027;-81
2021/10/19 07:26:48;;;;;;;13.70;12.40;;;15.00;91.60;;;;;;5032688;28;20127;-79
2021/10/19 07:29:14;;;;;;;13.38;12.07;;;15.00;91.60;;;;;;5089773;28;20027;-78
2021/10/19 07:31:39;;;;;;;14.68;13.18;;;15.00;91.70;;;;;;5047315;28;20474;-79
2021/10/19 07:34:05;;;;;;;16.58;14.88;;;15.00;91.70;;;;;;5070847;28;20115;-79
2021/10/19 07:36:32;;;;;;;13.40;11.90;;;15.00;91.70;;;;;;5086908;28;20024;-78
2021/10/19 07:38:57;;;;;;;13.82;12.52;;;15.00;91.70;;;;;;5067094;28;20473;-79
2021/10/19 07:41:23;;;;;;;15.32;13.57;;;15.00;91.70;;;;;;5055839;28;20020;-79
2021/10/19 07:43:49;;;;;;;12.40;11.30;;;15.00;91.70;;;;;;5075034;28;20060;-79
2021/10/19 07:46:14;;;;;;;14.73;13.23;;;15.00;91.70;;;;;;5086114;28;20024;-79
2021/10/19 07:48:40;;;;;;;13.02;11.77;;;15.10;91.80;;;;;;5067204;28;20024;-80
2021/10/19 07:51:06;;;;;;;12.68;11.50;;;15.10;91.80;;;;;;5087699;28;20040;-79
2021/10/19 07:53:31;;;;;;;14.63;13.30;;;15.10;91.80;;;;;;5031988;28;20496;-79
2021/10/19 07:55:58;;;;;;;17.25;13.93;;;15.10;91.80;;;;;;5064464;28;20032;-79
2021/10/19 07:58:24;;;;;;;16.38;14.10;;;15.10;91.90;;;;;;5053853;28;20024;-80
2021/10/19 08:00:50;;;;;;;16.33;13.50;;;15.20;91.80;;;;;;5066146;28;20028;-80
2021/10/19 08:03:15;;;;;;;14.35;12.85;;;15.20;91.90;;;;;;5073462;28;20478;-80
2021/10/19 08:05:42;;;;;;;13.90;12.55;;;15.20;91.80;;;;;;5053742;28;20393;-80
2021/10/19 08:08:15;;;;;;;14.50;12.93;;;15.20;91.90;;;;;;5057094;28;20498;-79
2021/10/19 08:10:44;;;;;;;16.17;14.45;;;15.20;91.90;;;;;;5084618;28;20032;-80
2021/10/19 08:13:09;;;;;;;14.45;12.73;;;15.30;92.00;;;;;;5068783;28;20455;-78
2021/10/19 08:15:39;;;;;;;13.30;11.85;;;15.30;91.90;;;;;;5057896;28;20115;-79
2021/10/19 08:18:06;;;;;;;12.98;11.73;;;15.30;91.90;;;;;;5086392;28;20445;-80
2021/10/19 08:20:33;;;;;;;15.70;14.10;;;15.30;91.90;;;;;;5102646;28;20550;-80
2021/10/19 08:22:59;;;;;;;14.10;12.70;;;15.40;92.10;;;;;;5091640;28;20107;-80
2021/10/19 08:25:25;;;;;;;14.85;13.30;;;15.40;92.10;;;;;;5073833;28;20111;-80
2021/10/19 08:27:51;;;;;;;14.98;13.57;;;15.40;92.20;;;;;;5073012;28;20502;-80
2021/10/19 08:30:19;;;;;;;14.25;12.85;;;15.40;92.20;;;;;;5053160;28;20116;-79
2021/10/19 08:32:47;;;;;;;13.63;12.32;;;15.40;92.20;;;;;;5089385;28;20437;-79
2021/10/19 08:35:13;;;;;;;14.13;12.70;;;15.40;92.20;;;;;;5079280;28;20027;-79
2021/10/19 08:37:41;;;;;;;12.88;11.77;;;15.40;92.10;;;;;;5091142;28;20036;-78
2021/10/19 08:40:08;;;;;;;13.88;12.50;;;15.40;92.10;;;;;;5059012;28;20028;-78
2021/10/19 08:42:41;;;;;;;12.48;11.35;;;15.40;92.10;;;;;;5050693;28;20471;-78
2021/10/19 08:45:08;;;;;;;14.45;12.95;;;15.50;92.10;;;;;;5088658;28;20454;-78
2021/10/19 08:47:34;;;;;;;14.18;12.88;;;15.50;92.10;;;;;;5086609;28;20020;-78
2021/10/19 08:50:01;;;;;;;13.13;11.73;;;15.50;92.10;;;;;;5060614;28;20024;-78
2021/10/19 08:52:27;;;;;;;13.32;12.15;;;15.50;92.20;;;;;;5075026;28;20027;-79
2021/10/19 08:54:53;;;;;;;14.40;13.00;;;15.60;92.20;;;;;;5060872;28;20430;-80
2021/10/19 08:57:19;;;;;;;11.00;9.90;;;15.60;92.30;;;;;;5062462;28;20039;-78
2021/10/19 08:59:46;;;;;;;13.93;12.52;;;15.60;92.30;;;;;;5061869;28;20032;-79
2021/10/19 09:02:13;;;;;;;13.75;12.32;;;15.60;92.30;;;;;;5067878;28;20510;-80
2021/10/19 09:04:39;;;;;;;14.60;13.30;;;15.60;92.30;;;;;;5054137;28;20028;-79
2021/10/19 09:07:05;;;;;;;15.98;14.35;;;15.60;92.40;;;;;;5049576;28;20478;-77
2021/10/19 09:09:34;;;;;;;16.30;13.88;;;15.70;92.50;;;;;;5059372;28;20036;-80
2021/10/19 09:11:59;;;;;;;15.07;13.57;;;15.70;92.50;;;;;;5068704;28;20398;-79
2021/10/19 09:14:34;;;;;;;13.88;12.25;;;15.70;92.50;;;;;;5083306;28;20024;-79
2021/10/19 09:17:01;;;;;;;14.73;12.23;;;15.70;92.50;;;;;;5086509;28;20053;-82
2021/10/19 09:19:28;;;;;;;13.82;12.45;;;15.70;92.50;;;;;;5078800;28;20043;-79
2021/10/19 09:22:03;;;;;;;15.30;13.52;;;15.70;92.50;;;;;;5094856;28;20488;-82
2021/10/19 09:24:32;;;;;;;15.25;13.80;;;15.80;92.60;;;;;;5097145;27;20433;-82
2021/10/19 09:27:08;;;;;;;13.82;12.38;;;15.80;92.80;;;;;;5077413;28;20111;-82
2021/10/19 09:29:36;;;;;;;14.07;12.65;;;15.80;92.80;;;;;;5093491;28;20019;-82
2021/10/19 09:32:06;;;;;;;11.25;10.25;;;15.80;92.80;;;;;;5092384;28;20020;-82
2021/10/19 09:34:34;;;;;;;13.27;11.88;;;15.80;92.70;;;;;;5068313;28;20108;-82
2021/10/19 09:37:01;;;;;;;11.55;10.38;;;15.90;92.70;;;;;;5070715;28;20051;-82
2021/10/19 09:39:49;;;;;;;10.32;9.23;;;15.90;92.70;;;;;;5074740;28;20020;-78
2021/10/19 09:42:22;;;;;;;11.68;10.18;;;15.90;92.60;;;;;;5092509;28;20093;-78
2021/10/19 09:44:52;;;;;;;10.85;9.88;;;16.00;92.70;;;;;;5072328;28;20111;-79
2021/10/19 09:47:19;;;;;;;10.10;9.15;;;16.00;92.80;;;;;;5060003;28;20034;-82
2021/10/19 09:49:47;;;;;;;9.02;8.18;;;16.00;92.80;;;;;;5073093;28;20032;-82
2021/10/19 09:52:12;;;;;;;9.18;8.23;;;16.00;92.70;;;;;;5071520;28;20119;-79
2021/10/19 09:54:40;;;;;;;9.48;8.48;;;16.10;92.80;;;;;;5051571;28;20419;-82
2021/10/19 09:57:06;;;;;;;10.85;8.55;;;16.10;92.80;;;;;;5070691;28;20395;-79
2021/10/19 09:59:32;;;;;;;10.38;8.60;;;16.10;92.80;;;;;;5087664;28;20020;-81
2021/10/19 10:01:58;;;;;;;9.07;8.18;;;16.10;92.80;;;;;;5060493;28;20048;-81
2021/10/19 10:04:24;;;;;;;8.50;7.78;;;16.20;92.90;;;;;;5052661;28;20052;-82
2021/10/19 10:06:51;;;;;;;8.85;8.05;;;16.20;92.90;;;;;;5090720;28;20024;-81
2021/10/19 10:09:18;;;;;;;7.40;6.80;;;16.20;92.90;;;;;;5075212;28;20636;-81
2021/10/19 10:11:44;;;;;;;8.15;7.45;;;16.30;92.80;;;;;;5055775;28;20051;-79
2021/10/19 10:14:12;;;;;;;8.05;7.35;;;16.30;92.80;;;;;;5054091;28;20635;-81
2021/10/19 10:16:49;;;;;;;6.78;6.18;;;16.30;92.80;;;;;;5051975;28;20403;-78
2021/10/19 10:19:18;;;;;;;7.70;6.88;;;16.30;92.80;;;;;;5054363;28;20032;-82
2021/10/19 10:21:53;;;;;;;8.70;7.80;;;16.30;92.90;;;;;;5101077;28;20169;-81
2021/10/19 10:24:33;;;;;;;6.68;6.07;;;16.40;93.00;;;;;;5074921;28;20031;-81
2021/10/19 10:27:10;;;;;;;8.13;6.38;;;16.40;92.90;;;;;;5055942;28;20031;-80
2021/10/19 10:29:39;;;;;;;7.13;6.53;;;16.40;92.90;;;;;;5066727;28;20413;-79
2021/10/19 10:32:06;;;;;;;7.63;6.90;;;16.40;92.90;;;;;;5070798;28;20016;-78
2021/10/19 10:34:32;;;;;;;6.75;6.15;;;16.40;92.90;;;;;;5050551;28;20048;-79
2021/10/19 10:37:13;;;;;;;6.05;5.55;;;16.40;92.90;;;;;;5081808;28;20040;-78
2021/10/19 10:39:46;;;;;;;6.80;6.10;;;16.50;92.90;;;;;;5070262;28;20020;-79
2021/10/19 10:42:13;;;;;;;7.22;6.63;;;16.50;92.90;;;;;;5072495;28;20394;-82
2021/10/19 10:44:41;;;;;;;7.97;7.18;;;16.50;93.00;;;;;;5070392;28;20487;-82
2021/10/19 10:47:09;;;;;;;6.60;5.82;;;16.50;93.00;;;;;;5087730;28;20020;-83
2021/10/19 10:49:36;;;;;;;8.98;6.80;;;16.50;93.00;;;;;;5046301;28;20076;-83
2021/10/19 10:52:14;;;;;;;9.10;8.20;;;16.60;93.00;;;;;;5079110;28;20032;-83
2021/10/19 10:54:53;;;;;;;8.93;7.72;;;16.60;93.00;;;;;;5073516;28;20411;-79
2021/10/19 10:57:19;;;;;;;7.75;6.95;;;16.60;92.90;;;;;;5084413;28;20501;-79
2021/10/19 10:59:53;;;;;;;9.93;8.75;;;16.60;92.90;;;;;;5054876;28;20505;-83
2021/10/19 11:02:19;;;;;;;10.32;8.32;;;16.60;92.90;;;;;;5081285;28;20093;-83
2021/10/19 11:04:49;;;;;;;11.43;9.15;;;16.70;92.90;;;;;;5050769;28;20042;-78
2021/10/19 11:07:44;;;;;;;10.27;8.63;;;16.70;92.90;;;;;;5061456;28;20040;-78
2021/10/19 11:10:15;;;;;;;11.02;9.32;;;16.70;92.80;;;;;;5042768;28;20169;-78
2021/10/19 11:12:44;;;;;;;13.70;10.18;;;16.70;92.90;;;;;;5050189;28;20032;-78
2021/10/19 11:15:14;;;;;;;7.95;7.15;;;16.80;92.90;;;;;;5066558;28;20439;-77
2021/10/19 11:17:50;;;;;;;11.10;9.82;;;16.80;92.80;;;;;;5065082;28;20386;-77
2021/10/19 11:20:17;;;;;;;10.32;8.82;;;16.80;92.90;;;;;;5082600;28;20056;-78
2021/10/19 11:22:44;;;;;;;12.15;9.60;;;16.80;92.90;;;;;;5067449;28;20035;-83
2021/10/19 11:25:12;;;;;;;10.60;9.57;;;16.80;92.90;;;;;;5049170;28;20029;-78
2021/10/19 11:27:38;;;;;;;12.45;10.27;;;16.80;92.90;;;;;;5089567;28;20027;-78
2021/10/19 11:30:08;;;;;;;12.10;10.10;;;16.90;92.90;;;;;;5055158;28;20026;-78
2021/10/19 11:32:35;;;;;;;11.35;10.25;;;16.90;92.90;;;;;;5091575;28;20051;-78
2021/10/19 11:35:05;;;;;;;11.10;9.98;;;16.90;92.90;;;;;;5051874;28;20088;-78
2021/10/19 11:37:31;;;;;;;11.50;9.68;;;17.00;92.90;;;;;;5069123;28;20035;-83
2021/10/19 11:40:04;;;;;;;12.68;11.38;;;17.00;92.90;;;;;;5086061;28;20029;-82
2021/10/19 11:42:58;;;;;;;15.00;11.35;;;17.00;92.90;;;;;;5083220;28;20090;-83
2021/10/19 11:45:26;;;;;;;11.77;10.45;;;17.00;92.90;;;;;;5049899;28;20111;-82
2021/10/19 11:48:01;;;;;;;13.93;12.25;;;17.10;92.90;;;;;;5052769;28;20039;-78
2021/10/19 11:50:33;;;;;;;11.73;10.52;;;17.10;92.90;;;;;;5063571;28;20429;-78
2021/10/19 11:53:01;;;;;;;13.02;11.60;;;17.10;93.00;;;;;;5087342;28;20454;-84
2021/10/19 11:55:31;;;;;;;14.82;13.23;;;17.10;93.00;;;;;;5071723;28;20025;-82
2021/10/19 11:57:57;;;;;;;15.77;13.30;;;17.10;93.00;;;;;;5098162;28;20107;-82
2021/10/19 12:00:24;;;;;;;13.85;12.45;;;17.20;93.10;;;;;;5069031;28;20115;-78
2021/10/19 12:02:55;;;;;;;17.25;14.70;;;17.20;93.10;;;;;;5073833;28;20063;-78
2021/10/19 12:05:23;;;;;;;14.32;12.77;;;17.20;93.20;;;;;;5082233;28;20108;-83
2021/10/19 12:07:51;;;;;;;16.65;14.65;;;17.20;93.10;;;;;;5051354;28;20035;-79
2021/10/19 12:10:20;;;;;;;16.83;14.93;;;17.20;93.20;;;;;;5094822;28;20684;-78
2021/10/19 12:13:01;;;;;;;14.52;13.10;;;17.30;93.10;;;;;;5074277;28;20374;-78
2021/10/19 12:15:30;;;;;;;20.30;16.02;;;17.30;93.00;;;;;;5066447;28;20063;-78
2021/10/19 12:18:04;;;;;;;16.50;14.27;;;17.30;93.20;;;;;;5061488;28;20481;-79
2021/10/19 12:20:33;;;;;;;15.82;13.65;;;17.30;93.10;;;;;;5068768;28;20288;-79
2021/10/19 12:23:09;;;;;;;15.45;13.75;;;17.30;93.20;;;;;;5085423;28;20082;-79
2021/10/19 12:25:37;;;;;;;14.77;12.65;;;17.40;93.20;;;;;;5063458;28;20024;-79
2021/10/19 12:28:04;;;;;;;17.02;14.10;;;17.40;93.20;;;;;;5072777;28;20029;-79